createdAt,value
2019-05-10T00:00:27.367Z,89432.14
2019-05-10T00:03:14.966Z,89428.05
2019-05-10T00:06:02.469Z,89450.11
2019-05-10T00:08:46.644Z,89319.16
2019-05-10T00:11:29.069Z,89299.08
2019-05-10T00:14:09.220Z,89282.39
2019-05-10T00:16:39.153Z,89299.59
2019-05-10T00:19:09.042Z,89304.82
2019-05-10T00:21:38.833Z,89233.02
2019-05-10T00:24:08.665Z,89068.70
2019-05-10T00:26:38.452Z,88986.19
2019-05-10T00:29:08.328Z,88931.42
2019-05-10T00:31:38.179Z,88897.44
2019-05-10T00:34:07.961Z,88841.84
2019-05-10T00:36:37.779Z,88811.41
2019-05-10T00:39:07.576Z,88877.53
2019-05-10T00:41:37.286Z,88962.13
2019-05-10T00:44:07.052Z,88968.09
2019-05-10T00:46:36.822Z,89020.31
2019-05-10T00:49:06.632Z,89041.94
2019-05-10T00:51:36.470Z,89093.19
2019-05-10T00:54:06.326Z,89015.92
2019-05-10T00:56:36.116Z,88908.55
2019-05-10T00:59:05.882Z,88805.54
2019-05-10T01:01:35.751Z,88799.98
2019-05-10T01:04:07.844Z,88788.63
2019-05-10T01:06:40.006Z,88763.75
2019-05-10T01:09:11.376Z,88863.09
2019-05-10T01:11:41.211Z,88837.88
2019-05-10T01:14:13.170Z,88819.12
2019-05-10T01:16:45.783Z,88767.80
2019-05-10T01:19:18.702Z,88755.72
2019-05-10T01:21:51.485Z,88651.13
2019-05-10T01:24:22.871Z,88735.55
2019-05-10T01:26:54.743Z,88618.56
2019-05-10T01:29:27.743Z,88622.55
2019-05-10T01:32:03.853Z,88681.66
2019-05-10T01:34:36.903Z,88562.20
2019-05-10T01:37:06.526Z,88498.50
2019-05-10T01:39:41.734Z,88343.41
2019-05-10T01:42:19.852Z,88262.30
2019-05-10T01:44:50.174Z,88317.27
2019-05-10T01:47:20.011Z,88309.61
2019-05-10T01:49:55.090Z,88395.77
2019-05-10T01:52:28.747Z,88369.92
2019-05-10T01:55:01.586Z,88396.35
2019-05-10T01:57:31.345Z,88450.73
2019-05-10T02:00:01.196Z,88424.21
2019-05-10T02:02:33.855Z,88508.13
2019-05-10T02:05:06.850Z,88479.31
2019-05-10T02:07:36.646Z,88394.30
2019-05-10T02:10:12.155Z,88294.39
2019-05-10T02:12:41.995Z,88190.40
2019-05-10T02:15:13.419Z,88268.93
2019-05-10T02:17:45.812Z,88166.31
2019-05-10T02:20:23.013Z,88054.01
2019-05-10T02:22:52.824Z,88175.67
2019-05-10T02:25:22.654Z,88231.14
2019-05-10T02:27:53.235Z,87998.42
2019-05-10T02:30:25.165Z,87844.56
2019-05-10T02:32:58.073Z,88018.30
2019-05-10T02:35:31.019Z,88078.98
2019-05-10T02:38:01.821Z,87771.46
2019-05-10T02:40:31.652Z,87890.23
2019-05-10T02:43:01.378Z,87908.86
2019-05-10T02:45:31.764Z,87949.13
2019-05-10T02:48:01.562Z,88036.91
2019-05-10T02:50:31.340Z,88046.14
2019-05-10T02:53:01.060Z,88062.68
2019-05-10T02:55:31.768Z,87925.08
2019-05-10T02:58:01.545Z,87933.30
2019-05-10T03:00:33.576Z,87852.59
2019-05-10T03:03:04.811Z,87698.95
2019-05-10T03:05:34.568Z,87587.02
2019-05-10T03:08:05.305Z,87575.66
2019-05-10T03:10:35.212Z,87660.07
2019-05-10T03:13:06.552Z,87510.49
2019-05-10T03:15:38.635Z,87595.86
2019-05-10T03:18:08.434Z,87500.27
2019-05-10T03:20:38.847Z,87461.36
2019-05-10T03:23:10.863Z,87361.80
2019-05-10T03:25:40.903Z,87406.86
2019-05-10T03:28:11.750Z,87395.41
2019-05-10T03:30:41.588Z,87328.45
2019-05-10T03:33:11.430Z,87421.19
2019-05-10T03:35:41.163Z,87387.39
2019-05-10T03:38:10.907Z,87511.31
2019-05-10T03:40:43.684Z,87563.91
2019-05-10T03:43:13.480Z,87556.09
2019-05-10T03:45:43.284Z,87534.31
2019-05-10T03:48:14.504Z,87696.20
2019-05-10T03:50:48.544Z,87682.80
2019-05-10T03:53:19.885Z,87755.91
2019-05-10T03:55:49.645Z,87828.00
2019-05-10T03:58:23.658Z,87941.48
2019-05-10T04:00:53.481Z,87775.86
2019-05-10T04:03:28.887Z,87912.56
2019-05-10T04:05:59.270Z,88132.20
2019-05-10T04:08:29.092Z,88343.95
2019-05-10T04:11:01.596Z,88449.78
2019-05-10T04:13:31.385Z,88526.37
2019-05-10T04:16:01.193Z,88762.19
2019-05-10T04:18:30.955Z,89114.31
2019-05-10T04:21:00.750Z,89603.37
2019-05-10T04:23:30.514Z,90095.81
2019-05-10T04:26:00.322Z,90377.20
2019-05-10T04:28:30.090Z,91071.82
2019-05-10T04:30:59.934Z,91498.03
2019-05-10T04:33:29.823Z,91648.94
2019-05-10T04:35:59.660Z,91900.33
2019-05-10T04:38:29.465Z,92595.57
2019-05-10T04:40:59.260Z,92892.38
2019-05-10T04:43:29.217Z,92977.81
2019-05-10T04:45:59.003Z,92978.59
2019-05-10T04:48:28.734Z,92977.06
2019-05-10T04:50:58.502Z,92948.06
2019-05-10T04:53:28.211Z,92910.11
2019-05-10T04:55:58.996Z,92826.89
2019-05-10T04:58:28.642Z,92701.27
2019-05-10T05:00:58.431Z,92656.20
2019-05-10T05:03:28.218Z,92647.69
2019-05-10T05:05:58.114Z,92677.73
2019-05-10T05:08:27.820Z,92712.54
2019-05-10T05:10:57.668Z,92786.62
2019-05-10T05:13:27.456Z,92831.85
2019-05-10T05:15:57.189Z,92881.59
2019-05-10T05:18:27.128Z,92932.39
2019-05-10T05:20:56.923Z,92903.22
2019-05-10T05:23:26.664Z,92839.97
2019-05-10T05:25:56.485Z,92763.38
2019-05-10T05:28:26.256Z,92808.66
2019-05-10T05:30:55.952Z,92808.66
2019-05-10T05:33:25.781Z,92763.90
2019-05-10T05:35:55.566Z,92736.71
2019-05-10T05:38:25.333Z,92704.69
2019-05-10T05:40:55.148Z,92715.08
2019-05-10T05:43:25.900Z,92614.14
2019-05-10T05:45:55.682Z,92583.47
2019-05-10T05:48:40.156Z,92578.30
2019-05-10T05:51:00.064Z,92649.39
2019-05-10T05:53:35.949Z,92796.28
2019-05-10T05:56:12.684Z,92840.41
2019-05-10T05:58:38.285Z,92814.62
2019-05-10T06:01:09.408Z,92727.59
2019-05-10T06:03:39.206Z,92748.20
2019-05-10T06:06:21.769Z,92804.20
2019-05-10T06:08:40.583Z,92792.25
2019-05-10T06:11:10.444Z,92825.21
2019-05-10T06:13:40.186Z,92855.41
2019-05-10T06:16:12.857Z,92724.12
2019-05-10T06:18:46.686Z,92960.70
2019-05-10T06:21:17.871Z,92969.52
2019-05-10T06:23:44.698Z,92983.73
2019-05-10T06:26:24.041Z,92993.50
2019-05-10T06:29:04.664Z,93013.66
2019-05-10T06:31:17.492Z,93033.10
2019-05-10T06:33:47.320Z,93045.92
2019-05-10T06:36:17.121Z,93077.39
2019-05-10T06:38:46.950Z,93075.16
2019-05-10T06:41:19.086Z,93092.45
2019-05-10T06:43:51.414Z,93096.39
2019-05-10T06:46:23.613Z,93100.11
2019-05-10T06:48:53.046Z,93095.22
2019-05-10T06:51:22.812Z,93093.73
2019-05-10T06:53:53.904Z,93078.07
2019-05-10T06:56:23.922Z,93034.95
2019-05-10T06:58:53.674Z,92997.78
2019-05-10T07:01:23.487Z,92886.36
2019-05-10T07:03:53.251Z,92705.10
2019-05-10T07:06:25.306Z,92533.91
2019-05-10T07:08:57.814Z,92328.22
2019-05-10T07:11:28.236Z,92007.74
2019-05-10T07:13:58.064Z,91782.43
2019-05-10T07:16:29.529Z,91364.87
2019-05-10T07:19:00.661Z,91080.86
2019-05-10T07:21:30.899Z,90593.39
2019-05-10T07:24:01.793Z,90002.16
2019-05-10T07:26:33.041Z,89630.13
2019-05-10T07:29:02.815Z,89278.90
2019-05-10T07:31:32.614Z,89122.95
2019-05-10T07:34:02.463Z,89104.09
2019-05-10T07:36:34.658Z,88924.44
2019-05-10T07:39:08.313Z,88851.75
2019-05-10T07:41:38.107Z,88392.87
2019-05-10T07:44:10.362Z,88096.94
2019-05-10T07:46:40.252Z,87909.72
2019-05-10T07:49:10.957Z,87881.03
2019-05-10T07:51:40.747Z,87666.59
2019-05-10T07:54:10.610Z,87712.70
2019-05-10T07:56:45.865Z,87157.12
2019-05-10T07:59:16.229Z,87157.12
2019-05-10T08:01:43.540Z,87337.23
2019-05-10T08:04:13.424Z,87337.23
2019-05-10T08:06:47.657Z,87305.16
2019-05-10T08:09:14.754Z,87305.16
2019-05-10T08:11:44.547Z,86912.94
2019-05-10T08:14:14.317Z,86715.52
2019-05-10T08:16:49.775Z,86702.14
2019-05-10T08:19:16.412Z,86365.97
2019-05-10T08:21:48.799Z,86013.52
2019-05-10T08:24:17.773Z,85835.84
2019-05-10T08:26:47.549Z,85390.67
2019-05-10T08:29:17.331Z,85465.15
2019-05-10T08:31:52.802Z,85169.31
2019-05-10T08:34:19.187Z,84944.82
2019-05-10T08:36:51.999Z,85365.22
2019-05-10T08:39:22.375Z,85186.16
2019-05-10T08:42:03.619Z,84938.21
2019-05-10T08:44:24.055Z,84713.06
2019-05-10T08:46:53.982Z,84630.66
2019-05-10T08:49:31.403Z,85588.25
2019-05-10T08:51:55.290Z,85595.09
2019-05-10T08:54:26.448Z,85342.78
2019-05-10T08:57:01.234Z,85681.45
2019-05-10T08:59:30.796Z,85450.30
2019-05-10T09:02:01.963Z,85196.92
2019-05-10T09:04:41.737Z,84809.27
2019-05-10T09:07:02.939Z,84508.64
2019-05-10T09:09:35.829Z,84305.23
2019-05-10T09:12:09.263Z,84298.64
2019-05-10T09:14:42.601Z,84109.45
2019-05-10T09:17:14.803Z,83961.33
2019-05-10T09:19:44.321Z,83953.60
2019-05-10T09:22:15.428Z,84071.47
2019-05-10T09:24:48.432Z,84001.86
2019-05-10T09:27:18.993Z,84137.36
2019-05-10T09:29:48.801Z,84167.70
2019-05-10T09:32:23.385Z,84071.87
2019-05-10T09:34:54.088Z,84052.20
2019-05-10T09:37:22.864Z,84263.22
2019-05-10T09:40:04.255Z,84309.88
2019-05-10T09:42:26.519Z,85026.94
2019-05-10T09:44:55.776Z,85435.07
2019-05-10T09:47:25.540Z,85260.08
2019-05-10T09:49:58.828Z,84978.06
2019-05-10T09:52:26.886Z,84723.49
2019-05-10T09:54:57.108Z,85085.06
2019-05-10T09:57:27.878Z,84986.98
2019-05-10T09:59:57.884Z,84803.29
2019-05-10T10:02:33.651Z,84572.43
2019-05-10T10:04:59.279Z,84343.42
2019-05-10T10:07:33.301Z,84658.37
2019-05-10T10:10:00.610Z,84499.84
2019-05-10T10:12:30.451Z,84167.70
2019-05-10T10:15:00.272Z,83975.02
2019-05-10T10:17:30.799Z,83912.50
2019-05-10T10:20:00.751Z,83872.95
2019-05-10T10:22:30.563Z,83895.98
2019-05-10T10:25:00.746Z,83815.28
2019-05-10T10:27:34.646Z,83886.56
2019-05-10T10:30:06.586Z,83992.22
2019-05-10T10:32:34.943Z,83751.11
2019-05-10T10:35:07.953Z,83406.92
2019-05-10T10:37:38.017Z,83481.50
2019-05-10T10:40:09.104Z,83497.58
2019-05-10T10:42:39.035Z,84090.45
2019-05-10T10:45:10.092Z,84692.96
2019-05-10T10:47:39.883Z,85045.01
2019-05-10T10:50:13.448Z,84802.25
2019-05-10T10:52:41.766Z,84485.39
2019-05-10T10:55:13.477Z,84026.57
2019-05-10T10:57:44.689Z,84244.31
2019-05-10T11:00:20.279Z,83760.28
2019-05-10T11:02:46.770Z,83902.98
2019-05-10T11:05:17.677Z,84245.59
2019-05-10T11:07:47.987Z,85047.37
2019-05-10T11:10:22.274Z,85573.57
2019-05-10T11:12:56.241Z,87261.61
2019-05-10T11:15:28.254Z,87945.88
2019-05-10T11:17:55.734Z,88530.77
2019-05-10T11:20:25.563Z,89228.61
2019-05-10T11:22:55.452Z,89459.51
2019-05-10T11:25:25.247Z,89587.25
2019-05-10T11:27:58.547Z,89974.14
2019-05-10T11:30:26.613Z,90689.60
2019-05-10T11:32:56.420Z,91201.45
2019-05-10T11:35:31.233Z,91644.20
2019-05-10T11:37:57.966Z,91946.75
2019-05-10T11:40:32.140Z,91985.75
2019-05-10T11:43:01.327Z,91916.11
2019-05-10T11:45:34.328Z,91914.29
2019-05-10T11:48:02.450Z,91847.11
2019-05-10T11:50:35.311Z,91802.78
2019-05-10T11:53:06.900Z,91744.95
2019-05-10T11:55:39.578Z,91759.50
2019-05-10T11:58:08.761Z,91748.39
2019-05-10T12:00:38.416Z,91636.93
2019-05-10T12:03:14.776Z,91537.16
2019-05-10T12:05:42.311Z,91443.42
2019-05-10T12:08:13.008Z,91341.53
2019-05-10T12:10:52.810Z,91313.66
2019-05-10T12:13:19.452Z,91237.66
2019-05-10T12:15:45.711Z,91093.24
2019-05-10T12:18:15.498Z,91000.42
2019-05-10T12:20:55.911Z,90884.25
2019-05-10T12:23:23.135Z,90641.41
2019-05-10T12:26:16.067Z,90488.98
2019-05-10T12:28:24.485Z,90279.00
2019-05-10T12:30:51.348Z,90056.26
2019-05-10T12:33:25.120Z,90041.30
2019-05-10T12:35:52.590Z,89924.66
2019-05-10T12:38:23.754Z,89928.14
2019-05-10T12:40:53.930Z,90059.12
2019-05-10T12:43:23.743Z,90194.80
2019-05-10T12:45:53.546Z,90262.25
2019-05-10T12:48:23.693Z,90261.97
2019-05-10T12:50:57.955Z,90346.52
2019-05-10T12:53:25.094Z,90331.11
2019-05-10T12:55:54.853Z,90475.58
2019-05-10T12:58:24.658Z,90584.60
2019-05-10T13:00:54.833Z,90668.24
2019-05-10T13:03:30.785Z,90840.52
2019-05-10T13:05:56.321Z,91025.88
2019-05-10T13:08:26.213Z,91102.94
2019-05-10T13:10:55.961Z,91105.48
2019-05-10T13:13:29.852Z,91182.86
2019-05-10T13:15:57.308Z,91250.98
2019-05-10T13:18:48.101Z,91417.70
2019-05-10T13:20:58.570Z,91611.44
2019-05-10T13:23:28.363Z,91515.59
2019-05-10T13:25:58.189Z,91739.36
2019-05-10T13:28:28.018Z,91700.76
2019-05-10T13:30:59.900Z,91745.85
2019-05-10T13:33:34.751Z,91648.09
2019-05-10T13:36:00.823Z,91755.92
2019-05-10T13:38:30.643Z,91708.83
2019-05-10T13:41:00.430Z,91509.42
2019-05-10T13:43:30.208Z,91251.16
2019-05-10T13:46:00.043Z,91148.52
2019-05-10T13:48:29.811Z,90933.27
2019-05-10T13:50:59.605Z,90746.78
2019-05-10T13:53:29.526Z,90512.86
2019-05-10T13:55:59.285Z,90525.33
2019-05-10T13:58:29.073Z,90485.97
2019-05-10T14:00:58.921Z,90551.50
2019-05-10T14:03:42.967Z,90914.36
2019-05-10T14:06:00.217Z,90899.69
2019-05-10T14:08:30.064Z,91088.02
2019-05-10T14:11:01.868Z,91243.11
2019-05-10T14:13:35.845Z,91299.88
2019-05-10T14:16:05.065Z,91302.64
2019-05-10T14:18:34.845Z,91157.98
2019-05-10T14:21:04.597Z,91154.59
2019-05-10T14:23:35.570Z,91173.11
2019-05-10T14:26:09.149Z,91122.70
2019-05-10T14:28:37.387Z,91102.79
2019-05-10T14:31:07.469Z,91105.77
2019-05-10T14:33:38.129Z,91027.83
2019-05-10T14:36:07.901Z,91073.31
2019-05-10T14:38:37.667Z,91123.84
2019-05-10T14:41:10.693Z,91273.36
2019-05-10T14:43:38.928Z,91209.25
2019-05-10T14:46:13.801Z,91219.45
2019-05-10T14:48:40.363Z,91068.87
2019-05-10T14:51:11.738Z,90900.80
2019-05-10T14:53:41.705Z,90632.17
2019-05-10T14:56:13.979Z,90464.84
2019-05-10T14:58:42.981Z,90333.71
2019-05-10T15:01:12.802Z,90267.06
2019-05-10T15:03:45.707Z,90265.71
2019-05-10T15:06:14.106Z,90164.30
2019-05-10T15:08:43.990Z,90071.91
2019-05-10T15:11:13.735Z,89986.41
2019-05-10T15:13:43.536Z,89982.44
2019-05-10T15:16:26.075Z,89763.34
2019-05-10T15:18:44.966Z,89848.20
2019-05-10T15:21:14.741Z,89885.08
2019-05-10T15:23:44.593Z,90044.33
2019-05-10T15:26:14.373Z,90162.80
2019-05-10T15:28:44.171Z,90231.43
2019-05-10T15:31:14.042Z,90263.31
2019-05-10T15:33:43.874Z,90199.31
2019-05-10T15:36:13.696Z,90266.49
2019-05-10T15:38:49.714Z,90309.75
2019-05-10T15:41:16.879Z,90387.27
2019-05-10T15:43:48.934Z,90508.20
2019-05-10T15:46:23.076Z,90667.69
2019-05-10T15:48:50.762Z,90773.63
2019-05-10T15:51:34.896Z,90897.98
2019-05-10T15:53:52.200Z,91071.34
2019-05-10T15:56:22.076Z,91227.52
2019-05-10T15:58:51.925Z,91349.63
2019-05-10T16:01:27.038Z,91462.27
2019-05-10T16:03:53.281Z,91596.02
2019-05-10T16:06:24.174Z,91736.27
2019-05-10T16:08:54.055Z,91791.17
2019-05-10T16:11:23.859Z,91954.41
2019-05-10T16:13:54.724Z,92024.06
2019-05-10T16:16:30.342Z,92112.66
2019-05-10T16:18:56.727Z,92249.67
2019-05-10T16:21:26.510Z,92319.87
2019-05-10T16:23:56.326Z,92335.34
2019-05-10T16:26:26.067Z,92331.80
2019-05-10T16:29:02.008Z,92442.33
2019-05-10T16:31:27.388Z,92445.45
2019-05-10T16:33:57.190Z,92504.34
2019-05-10T16:36:28.337Z,92562.87
2019-05-10T16:39:01.433Z,92574.88
2019-05-10T16:41:32.707Z,92609.50
2019-05-10T16:44:02.489Z,92624.10
2019-05-10T16:46:32.327Z,92628.03
2019-05-10T16:49:02.190Z,92633.58
2019-05-10T16:51:31.997Z,92642.29
2019-05-10T16:54:01.847Z,92640.77
2019-05-10T16:56:31.668Z,92715.03
2019-05-10T16:59:01.748Z,92775.41
2019-05-10T17:01:33.626Z,92761.44
2019-05-10T17:04:03.088Z,92755.69
2019-05-10T17:06:35.376Z,92769.38
2019-05-10T17:09:09.446Z,92739.77
2019-05-10T17:11:41.484Z,92723.56
2019-05-10T17:14:12.697Z,92768.39
2019-05-10T17:16:41.526Z,92816.97
2019-05-10T17:19:12.229Z,92859.25
2019-05-10T17:21:42.069Z,92895.98
2019-05-10T17:24:18.526Z,92952.86
2019-05-10T17:26:50.432Z,93000.97
2019-05-10T17:29:20.288Z,93052.79
2019-05-10T17:31:50.106Z,93058.88
2019-05-10T17:34:27.753Z,92989.89
2019-05-10T17:36:57.642Z,93044.73
2019-05-10T17:39:26.023Z,93138.33
2019-05-10T17:42:03.156Z,93202.77
2019-05-10T17:44:29.968Z,93237.20
2019-05-10T17:46:59.833Z,93264.58
2019-05-10T17:49:29.734Z,93296.17
2019-05-10T17:51:59.947Z,93311.31
2019-05-10T17:54:33.763Z,93333.84
2019-05-10T17:57:02.811Z,93365.61
2019-05-10T17:59:34.964Z,93377.41
2019-05-10T18:02:04.937Z,93396.47
2019-05-10T18:04:34.806Z,93425.40
2019-05-10T18:07:05.686Z,93456.84
2019-05-10T18:09:35.538Z,93476.30
2019-05-10T18:12:05.771Z,93482.34
2019-05-10T18:14:35.967Z,93496.27
2019-05-10T18:17:07.271Z,93515.16
2019-05-10T18:19:37.373Z,93556.62
2019-05-10T18:22:08.269Z,93554.98
2019-05-10T18:24:42.172Z,93552.31
2019-05-10T18:27:12.905Z,93567.86
2019-05-10T18:29:42.655Z,93460.02
2019-05-10T18:32:13.552Z,93581.27
2019-05-10T18:34:48.289Z,93577.78
2019-05-10T18:37:21.744Z,93595.41
2019-05-10T18:39:52.988Z,93597.13
2019-05-10T18:42:25.290Z,93607.42
2019-05-10T18:44:54.499Z,93622.22
2019-05-10T18:47:24.752Z,93624.71
2019-05-10T18:49:54.778Z,93628.87
2019-05-10T18:52:24.686Z,93637.14
2019-05-10T18:54:55.624Z,93641.69
2019-05-10T18:57:25.955Z,93657.20
2019-05-10T18:59:56.945Z,93650.11
2019-05-10T19:02:31.141Z,93653.27
2019-05-10T19:05:01.271Z,93653.33
2019-05-10T19:07:31.188Z,93659.58
2019-05-10T19:10:01.030Z,93651.08
2019-05-10T19:12:40.623Z,93678.16
2019-05-10T19:15:15.945Z,93699.11
2019-05-10T19:17:48.462Z,93704.65
2019-05-10T19:20:19.594Z,93690.47
2019-05-10T19:22:50.431Z,93691.81
2019-05-10T19:25:22.848Z,93687.81
2019-05-10T19:27:52.731Z,93684.50
2019-05-10T19:30:22.797Z,93672.21
2019-05-10T19:32:56.342Z,93646.38
2019-05-10T19:35:24.115Z,93628.04
2019-05-10T19:37:54.278Z,93603.53
2019-05-10T19:40:24.145Z,93595.70
2019-05-10T19:42:55.723Z,93610.97
2019-05-10T19:45:26.740Z,93618.27
2019-05-10T19:47:57.279Z,93620.23
2019-05-10T19:50:30.782Z,93619.83
2019-05-10T19:53:03.762Z,93659.28
2019-05-10T19:55:34.747Z,93639.25
2019-05-10T19:58:08.541Z,93607.52
2019-05-10T20:00:41.583Z,93601.27
2019-05-10T20:03:12.494Z,93592.48
2019-05-10T20:05:42.740Z,93612.32
2019-05-10T20:08:12.465Z,93625.89
2019-05-10T20:10:43.279Z,93558.25
2019-05-10T20:16:04.948Z,93517.16
2019-05-10T20:18:36.205Z,93476.52
2019-05-10T20:21:13.406Z,93464.70
2019-05-10T20:23:43.506Z,93500.30
2019-05-10T20:26:13.525Z,93508.00
2019-05-10T20:28:55.045Z,93525.98
2019-05-10T20:31:24.947Z,93541.51
2019-05-10T20:33:55.624Z,93560.58
2019-05-10T20:36:26.156Z,93600.22
2019-05-10T20:38:56.043Z,93620.40
2019-05-10T20:41:26.325Z,93656.36
2019-05-10T20:43:58.813Z,93680.89
2019-05-10T20:46:29.736Z,93745.22
2019-05-10T20:48:59.531Z,93745.22
2019-05-10T20:51:29.306Z,93725.31
2019-05-10T20:54:00.591Z,93693.86
2019-05-10T20:56:30.405Z,93671.34
2019-05-10T20:59:00.209Z,93627.09
2019-05-10T21:01:31.123Z,93618.20
2019-05-10T21:04:00.962Z,93607.45
2019-05-10T21:06:32.155Z,93583.59
2019-05-10T21:09:01.877Z,93557.39
2019-05-10T21:11:31.640Z,93563.91
2019-05-10T21:14:01.642Z,93516.37
2019-05-10T21:16:32.581Z,93540.03
2019-05-10T21:19:02.280Z,93572.11
2019-05-10T21:21:33.815Z,93606.16
2019-05-10T21:24:03.652Z,93553.22
2019-05-10T21:26:36.948Z,93543.25
2019-05-10T21:29:07.488Z,93541.93
2019-05-10T21:31:37.366Z,93490.14
2019-05-10T21:34:10.131Z,93499.25
2019-05-10T21:36:39.882Z,93520.69
2019-05-10T21:39:09.689Z,93514.37
2019-05-10T21:41:39.586Z,93511.76
2019-05-10T21:44:11.827Z,93466.45
2019-05-10T21:46:41.632Z,93478.98
2019-05-10T21:49:11.405Z,93540.49
2019-05-10T21:51:41.085Z,93562.09
2019-05-10T21:54:11.684Z,93517.86
2019-05-10T21:56:41.407Z,93492.28
2019-05-10T21:59:11.165Z,93472.45
2019-05-10T22:01:40.967Z,93481.41
2019-05-10T22:04:10.715Z,93540.42
2019-05-10T22:06:40.487Z,93572.61
2019-05-10T22:09:10.737Z,93543.98
2019-05-10T22:11:40.505Z,93482.99
2019-05-10T22:14:10.431Z,93419.78
2019-05-10T22:16:41.889Z,93297.88
2019-05-10T22:19:11.694Z,93287.17
2019-05-10T22:21:41.545Z,93363.84
2019-05-10T22:24:11.325Z,93409.41
2019-05-10T22:26:41.647Z,93258.97
2019-05-10T22:29:11.252Z,93198.17
2019-05-10T22:31:41.105Z,93126.01
2019-05-10T22:34:11.685Z,93090.75
2019-05-10T22:36:41.499Z,93117.15
2019-05-10T22:39:11.336Z,93147.67
2019-05-10T22:41:41.112Z,93148.30
2019-05-10T22:44:11.001Z,93068.55
2019-05-10T22:46:43.653Z,93084.00
2019-05-10T22:49:13.674Z,93046.44
2019-05-10T22:51:43.466Z,93096.42
2019-05-10T22:54:15.567Z,93084.16
2019-05-10T22:56:46.847Z,93087.97
2019-05-10T22:59:17.069Z,93044.02
2019-05-10T23:01:49.168Z,93053.94
2019-05-10T23:04:20.561Z,93061.87
2019-05-10T23:06:51.339Z,92996.09
2019-05-10T23:09:24.820Z,92869.72
2019-05-10T23:11:52.717Z,92824.22
2019-05-10T23:14:22.590Z,92838.57
2019-05-10T23:16:53.087Z,92894.20
2019-05-10T23:19:22.904Z,92923.25
2019-05-10T23:21:52.655Z,92990.41
2019-05-10T23:24:23.943Z,93028.48
2019-05-10T23:26:54.564Z,93011.37
2019-05-10T23:29:25.045Z,93054.34
2019-05-10T23:31:56.901Z,93068.55
2019-05-10T23:34:26.933Z,93114.79
2019-05-10T23:36:56.767Z,93160.36
2019-05-10T23:39:39.581Z,93179.70
2019-05-10T23:41:57.923Z,93169.22
2019-05-10T23:44:27.646Z,93139.78
2019-05-10T23:46:57.634Z,93129.05
2019-05-10T23:49:27.371Z,93114.70
2019-05-10T23:51:57.013Z,93088.59
2019-05-10T23:54:29.027Z,92982.11
2019-05-10T23:57:05.533Z,92990.46
2019-05-10T23:59:35.985Z,92902.08
